Madison, Wisconsin
Current Conditions -  °F | °C
As of 1:53 AM on Friday 28 Nov 2014 (Local Time) from KMSN Reporting Station
Overcast Overcast  
Wind Chill: -15°   Ceiling: 10000
Heat Index: -10°   Visibility: 10mi
Dew Point: -15°   Wind: 6mph
Humidity: 67%   Direction: NA
Pressure: 30.34"   Gusts: NA
Location:  43.07°N, 89.39°W
Report Text: KMSN 280753Z AUTO VRB05KT 10SM OVC100 M10/M15 A3034 RMK AO2 SLP291 T11001150
Loading
Personal Weather Stations






























Interactive Weather Map New forecast layout! Learn more

10-Day Weather Forecast

Advertisements
Track Severe Weather on mobile